createdAt,value
2022-12-08T00:01:15.325Z,11.17
2022-12-08T00:03:43.233Z,13.10
2022-12-08T00:06:38.052Z,11.63
2022-12-08T00:09:23.206Z,10.50
2022-12-08T00:11:58.644Z,12.37
2022-12-08T00:14:29.610Z,11.53
2022-12-08T00:16:57.372Z,11.60
2022-12-08T00:19:25.894Z,10.90
2022-12-08T00:21:53.617Z,8.82
2022-12-08T00:24:22.093Z,10.60
2022-12-08T00:26:49.424Z,11.68
2022-12-08T00:29:17.932Z,12.13
2022-12-08T00:31:45.141Z,12.35
2022-12-08T00:34:16.372Z,10.27
2022-12-08T00:36:43.741Z,10.70
2022-12-08T00:39:11.823Z,10.10
2022-12-08T00:41:57.645Z,10.17
2022-12-08T00:44:24.949Z,12.30
2022-12-08T00:46:51.844Z,10.77
2022-12-08T00:49:19.300Z,10.17
2022-12-08T00:51:46.567Z,11.90
2022-12-08T00:54:13.806Z,10.30
2022-12-08T00:56:40.689Z,12.23
2022-12-08T00:59:08.098Z,10.90
2022-12-08T01:01:35.400Z,11.37
2022-12-08T01:04:05.179Z,11.87
2022-12-08T01:06:32.545Z,13.03
2022-12-08T01:08:59.616Z,11.00
2022-12-08T01:11:26.481Z,10.37
2022-12-08T01:13:54.773Z,11.90
2022-12-08T01:16:24.124Z,12.53
2022-12-08T01:18:51.492Z,12.30
2022-12-08T01:21:18.760Z,11.53
2022-12-08T01:23:46.743Z,12.60
2022-12-08T01:26:15.613Z,12.23
2022-12-08T01:28:43.783Z,11.77
2022-12-08T01:31:16.924Z,11.20
2022-12-08T01:33:45.016Z,9.90
2022-12-08T01:36:21.402Z,11.57
2022-12-08T01:38:49.012Z,10.93
2022-12-08T01:41:18.166Z,11.83
2022-12-08T01:44:04.913Z,11.10
2022-12-08T01:46:34.302Z,11.97
2022-12-08T01:49:10.907Z,10.65
2022-12-08T01:52:03.988Z,11.90
2022-12-08T01:54:56.838Z,12.60
2022-12-08T01:57:37.624Z,12.20
2022-12-08T02:00:10.892Z,12.10
2022-12-08T02:02:54.436Z,11.50
2022-12-08T02:05:25.429Z,13.10
2022-12-08T02:07:53.411Z,12.17
2022-12-08T02:10:23.340Z,12.45
2022-12-08T02:12:53.738Z,11.57
2022-12-08T02:15:27.673Z,12.00
2022-12-08T02:18:04.356Z,12.90
2022-12-08T02:20:50.763Z,10.83
2022-12-08T02:23:27.245Z,11.20
2022-12-08T02:26:25.058Z,13.00
2022-12-08T02:29:23.130Z,12.27
2022-12-08T02:32:41.885Z,11.13
2022-12-08T02:35:11.349Z,10.90
2022-12-08T02:37:43.521Z,10.77
2022-12-08T02:40:24.584Z,10.90
2022-12-08T02:43:07.912Z,11.67
2022-12-08T02:45:45.032Z,12.50
2022-12-08T02:48:12.477Z,10.77
2022-12-08T02:50:39.218Z,11.10
2022-12-08T02:55:56.038Z,10.53
2022-12-08T02:58:41.319Z,10.90
2022-12-08T03:01:46.903Z,11.30
2022-12-08T03:04:22.755Z,11.83
2022-12-08T03:06:55.437Z,10.30
2022-12-08T03:09:33.920Z,11.30
2022-12-08T03:12:16.419Z,9.75
2022-12-08T03:14:48.389Z,12.13
2022-12-08T03:17:18.957Z,13.50
2022-12-08T03:19:48.819Z,12.33
2022-12-08T03:22:19.904Z,11.87
2022-12-08T03:24:47.370Z,11.47
2022-12-08T03:27:24.057Z,12.77
2022-12-08T03:29:54.098Z,12.97
2022-12-08T03:32:30.697Z,12.60
2022-12-08T03:35:01.349Z,12.97
2022-12-08T03:37:28.768Z,11.73
2022-12-08T03:39:56.192Z,12.43
2022-12-08T03:42:23.302Z,11.20
2022-12-08T03:44:50.410Z,12.63
2022-12-08T03:47:17.297Z,13.43
2022-12-08T03:49:44.372Z,12.80
2022-12-08T03:52:11.177Z,12.80
2022-12-08T03:54:38.313Z,14.83
2022-12-08T03:57:05.097Z,12.93
2022-12-08T03:59:32.240Z,15.43
2022-12-08T04:01:59.117Z,15.17
2022-12-08T04:04:26.296Z,14.87
2022-12-08T04:06:53.033Z,11.83
2022-12-08T04:09:20.092Z,14.30
2022-12-08T04:11:46.876Z,14.83
2022-12-08T04:14:14.494Z,12.70
2022-12-08T04:16:41.636Z,14.53
2022-12-08T04:19:08.687Z,12.93
2022-12-08T04:21:35.521Z,12.83
2022-12-08T04:24:02.970Z,13.40
2022-12-08T04:26:29.824Z,12.20
2022-12-08T04:28:56.932Z,11.53
2022-12-08T04:31:23.791Z,11.70
2022-12-08T04:33:50.929Z,12.57
2022-12-08T04:36:17.704Z,13.80
2022-12-08T04:38:44.909Z,13.43
2022-12-08T04:41:11.676Z,13.60
2022-12-08T04:43:38.732Z,10.90
2022-12-08T04:46:09.316Z,11.33
2022-12-08T04:48:41.034Z,12.73
2022-12-08T04:51:12.152Z,11.47
2022-12-08T04:53:44.841Z,11.37
2022-12-08T04:56:15.162Z,12.00
2022-12-08T05:01:09.510Z,10.90
2022-12-08T05:03:36.852Z,11.83
2022-12-08T05:06:04.645Z,11.80
2022-12-08T05:08:32.464Z,14.30
2022-12-08T05:11:07.264Z,14.07
2022-12-08T05:13:34.448Z,10.87
2022-12-08T05:16:09.969Z,13.50
2022-12-08T05:18:37.482Z,13.03
2022-12-08T05:21:04.957Z,12.33
2022-12-08T05:23:32.704Z,11.97
2022-12-08T05:26:00.626Z,11.00
2022-12-08T05:28:43.893Z,11.50
2022-12-08T05:31:13.644Z,11.43
2022-12-08T05:33:40.978Z,12.47
2022-12-08T05:36:09.013Z,10.90
2022-12-08T05:38:36.152Z,12.00
2022-12-08T05:41:02.941Z,13.13
2022-12-08T05:43:30.057Z,11.40
2022-12-08T05:45:56.982Z,13.23
2022-12-08T05:48:24.206Z,13.43
2022-12-08T05:50:51.862Z,13.40
2022-12-08T05:53:20.675Z,12.03
2022-12-08T05:55:48.249Z,14.23
2022-12-08T05:58:18.109Z,13.00
2022-12-08T06:00:46.630Z,13.07
2022-12-08T06:03:15.436Z,12.10
2022-12-08T06:05:44.076Z,11.88
2022-12-08T06:08:11.739Z,12.13
2022-12-08T06:10:43.244Z,12.93
2022-12-08T06:13:10.767Z,12.00
2022-12-08T06:15:38.890Z,13.10
2022-12-08T06:18:07.213Z,15.35
2022-12-08T06:20:34.996Z,14.20
2022-12-08T06:23:03.592Z,11.57
2022-12-08T06:25:30.860Z,13.68
2022-12-08T06:27:58.027Z,14.60
2022-12-08T06:30:24.793Z,13.50
2022-12-08T06:32:51.898Z,14.30
2022-12-08T06:35:18.745Z,13.37
2022-12-08T06:37:45.853Z,15.57
2022-12-08T06:40:13.084Z,13.40
2022-12-08T06:42:47.114Z,13.60
2022-12-08T06:45:18.167Z,13.70
2022-12-08T06:47:45.330Z,14.03
2022-12-08T06:50:13.790Z,13.03
2022-12-08T06:52:54.204Z,13.77
2022-12-08T06:55:50.944Z,14.53
2022-12-08T06:58:11.196Z,13.57
2022-12-08T07:00:38.400Z,13.43
2022-12-08T07:03:07.349Z,11.63
2022-12-08T07:05:34.902Z,11.65
2022-12-08T07:08:02.193Z,12.50
2022-12-08T07:10:29.286Z,10.83
2022-12-08T07:12:56.751Z,10.40
2022-12-08T07:15:23.629Z,10.50
2022-12-08T07:17:56.295Z,11.57
2022-12-08T07:20:26.293Z,11.80
2022-12-08T07:22:54.283Z,11.50
2022-12-08T07:25:21.340Z,11.00
2022-12-08T07:27:50.186Z,9.90
2022-12-08T07:30:17.720Z,9.60
2022-12-08T07:32:45.526Z,10.70
2022-12-08T07:35:12.404Z,10.43
2022-12-08T07:37:39.636Z,10.10
2022-12-08T07:40:08.604Z,11.47
2022-12-08T07:42:35.899Z,9.47
2022-12-08T07:45:02.793Z,10.97
2022-12-08T07:47:29.940Z,11.73
2022-12-08T07:49:56.763Z,11.50
2022-12-08T07:52:24.009Z,11.20
2022-12-08T07:54:50.809Z,11.40
2022-12-08T07:57:17.864Z,10.97
2022-12-08T07:59:44.600Z,12.53
2022-12-08T08:02:25.975Z,16.27
2022-12-08T08:04:53.618Z,30.80
2022-12-08T08:07:20.912Z,17.40
2022-12-08T08:09:47.644Z,9.95
2022-12-08T08:12:31.670Z,10.32
2022-12-08T08:15:00.153Z,28.55
2022-12-08T08:17:28.220Z,9.85
2022-12-08T08:19:55.168Z,12.38
2022-12-08T08:22:22.400Z,57.58
2022-12-08T08:24:49.157Z,8.18
2022-12-08T08:27:16.289Z,9.43
2022-12-08T08:29:43.088Z,9.80
2022-12-08T08:32:10.489Z,10.38
2022-12-08T08:34:37.368Z,7.25
2022-12-08T08:37:04.806Z,7.60
2022-12-08T08:39:32.082Z,6.47
2022-12-08T08:41:59.322Z,6.55
2022-12-08T08:44:26.291Z,6.05
2022-12-08T08:46:53.545Z,5.43
2022-12-08T08:49:20.893Z,7.50
2022-12-08T08:51:48.206Z,6.18
2022-12-08T08:54:15.399Z,6.55
2022-12-08T08:56:42.528Z,12.30
2022-12-08T08:59:10.470Z,13.48
2022-12-08T09:01:37.671Z,18.90
2022-12-08T09:04:04.579Z,13.88
2022-12-08T09:06:31.999Z,21.05
2022-12-08T09:08:58.801Z,31.92
2022-12-08T09:11:26.002Z,12.68
2022-12-08T09:13:54.377Z,9.98
2022-12-08T09:16:22.093Z,8.75
2022-12-08T09:18:52.175Z,7.28
2022-12-08T09:21:23.132Z,8.00
2022-12-08T09:23:51.275Z,5.68
2022-12-08T09:26:18.457Z,6.13
2022-12-08T09:28:46.737Z,6.47
2022-12-08T09:31:14.659Z,6.22
2022-12-08T09:33:42.141Z,5.28
2022-12-08T09:36:11.049Z,6.65
2022-12-08T09:38:38.896Z,11.48
2022-12-08T09:41:16.893Z,6.90
2022-12-08T09:44:02.681Z,6.72
2022-12-08T09:46:32.260Z,7.18
2022-12-08T09:51:38.829Z,6.25
2022-12-08T09:54:22.495Z,6.53
2022-12-08T09:56:55.059Z,8.55
2022-12-08T09:59:32.816Z,7.45
2022-12-08T10:02:11.660Z,5.20
2022-12-08T10:04:39.277Z,4.53
2022-12-08T10:07:25.371Z,6.30
2022-12-08T10:10:17.008Z,5.60
2022-12-08T10:12:51.996Z,5.68
2022-12-08T10:15:44.261Z,4.80
2022-12-08T10:18:23.186Z,4.15
2022-12-08T10:20:52.737Z,4.57
2022-12-08T10:23:29.874Z,5.95
2022-12-08T10:26:02.544Z,6.07
2022-12-08T10:28:29.875Z,4.85
2022-12-08T10:30:56.874Z,10.75
2022-12-08T10:33:24.008Z,5.03
2022-12-08T10:35:54.568Z,9.80
2022-12-08T10:38:36.947Z,4.90
2022-12-08T10:41:11.231Z,5.80
2022-12-08T10:43:43.806Z,5.93
2022-12-08T10:46:22.264Z,6.50
2022-12-08T10:48:49.650Z,4.40
2022-12-08T10:51:40.192Z,4.43
2022-12-08T10:54:28.264Z,5.80
2022-12-08T10:56:57.245Z,6.70
2022-12-08T11:01:56.604Z,5.28
2022-12-08T11:04:36.192Z,4.43
2022-12-08T11:09:40.096Z,4.50
2022-12-08T11:12:15.752Z,20.08
2022-12-08T11:14:42.773Z,6.28
2022-12-08T11:17:13.014Z,6.50
2022-12-08T11:19:42.537Z,6.32
2022-12-08T11:22:32.607Z,17.20
2022-12-08T11:25:10.684Z,10.52
2022-12-08T11:27:43.666Z,15.23
2022-12-08T11:30:15.407Z,12.63
2022-12-08T11:32:44.987Z,3.80
2022-12-08T11:35:24.181Z,4.47
2022-12-08T11:37:51.153Z,4.20
2022-12-08T11:40:29.699Z,5.05
2022-12-08T11:43:21.302Z,6.17
2022-12-08T11:45:59.048Z,6.70
2022-12-08T11:49:05.889Z,5.45
2022-12-08T11:51:36.646Z,5.10
2022-12-08T11:54:24.872Z,4.72
2022-12-08T11:56:55.721Z,6.25
2022-12-08T11:59:31.624Z,5.50
2022-12-08T12:02:01.473Z,5.60
2022-12-08T12:04:31.008Z,6.50
2022-12-08T12:07:26.567Z,7.93
2022-12-08T12:10:31.950Z,13.43
2022-12-08T12:12:58.968Z,7.73
2022-12-08T12:15:41.013Z,6.90
2022-12-08T12:18:19.069Z,7.57
2022-12-08T12:21:07.772Z,6.80
2022-12-08T12:23:44.427Z,10.73
2022-12-08T12:26:35.094Z,6.97
2022-12-08T12:29:13.084Z,8.50
2022-12-08T12:31:47.332Z,8.27
2022-12-08T12:34:22.534Z,7.03
2022-12-08T12:37:13.104Z,7.40
2022-12-08T12:39:49.220Z,6.17
2022-12-08T12:42:38.192Z,6.53
2022-12-08T12:45:17.089Z,6.60
2022-12-08T12:47:56.236Z,7.70
2022-12-08T12:50:38.622Z,6.47
2022-12-08T12:53:26.719Z,6.27
2022-12-08T12:56:01.438Z,7.10
2022-12-08T12:58:28.191Z,6.80
2022-12-08T13:01:10.324Z,6.37
2022-12-08T13:03:49.947Z,6.83
2022-12-08T13:06:32.349Z,5.77
2022-12-08T13:09:00.034Z,5.50
2022-12-08T13:11:27.382Z,6.43
2022-12-08T13:14:05.254Z,6.03
2022-12-08T13:16:34.911Z,6.10
2022-12-08T13:19:10.031Z,6.50
2022-12-08T13:21:39.013Z,8.57
2022-12-08T13:24:19.822Z,9.25
2022-12-08T13:27:07.815Z,6.97
2022-12-08T13:29:35.878Z,6.83
2022-12-08T13:32:02.956Z,7.13
2022-12-08T13:34:51.450Z,6.03
2022-12-08T13:37:53.909Z,6.25
2022-12-08T13:40:25.649Z,5.47
2022-12-08T13:43:16.913Z,5.17
2022-12-08T13:57:37.543Z,5.17
2022-12-08T14:00:14.797Z,6.77
2022-12-08T14:02:47.784Z,6.80
2022-12-08T14:05:19.505Z,7.13
2022-12-08T14:07:49.729Z,5.57
2022-12-08T14:10:21.196Z,7.93
2022-12-08T14:12:56.139Z,9.57
2022-12-08T14:15:25.846Z,12.23
2022-12-08T14:17:57.340Z,13.93
2022-12-08T14:20:30.035Z,13.20
2022-12-08T14:23:01.267Z,15.13
2022-12-08T14:25:29.811Z,15.80
2022-12-08T14:28:01.265Z,19.67
2022-12-08T14:30:36.302Z,20.53
2022-12-08T14:33:04.894Z,26.33
2022-12-08T14:35:37.618Z,19.95
2022-12-08T14:38:11.599Z,15.53
2022-12-08T14:40:41.693Z,12.97
2022-12-08T14:43:13.607Z,13.93
2022-12-08T14:45:40.807Z,12.57
2022-12-08T14:48:38.589Z,13.23
2022-12-08T14:51:05.935Z,10.25
2022-12-08T14:53:44.580Z,7.90
2022-12-08T14:56:23.276Z,10.18
2022-12-08T14:59:03.203Z,11.25
2022-12-08T15:01:30.795Z,8.87
2022-12-08T15:04:21.894Z,10.87
2022-12-08T15:07:01.138Z,11.27
2022-12-08T15:09:39.102Z,15.95
2022-12-08T15:12:31.858Z,12.45
2022-12-08T15:15:02.528Z,12.77
2022-12-08T15:17:40.933Z,11.70
2022-12-08T15:20:30.185Z,12.00
2022-12-08T15:23:02.628Z,12.70
2022-12-08T15:25:29.461Z,12.57
2022-12-08T15:27:58.075Z,11.60
2022-12-08T15:30:26.624Z,10.07
2022-12-08T15:32:54.349Z,11.82
2022-12-08T15:35:21.453Z,12.03
2022-12-08T15:37:48.652Z,11.63
2022-12-08T15:40:21.252Z,11.77
2022-12-08T15:42:49.250Z,31.43
2022-12-08T15:45:17.428Z,13.03
2022-12-08T15:47:45.545Z,10.07
2022-12-08T15:50:18.598Z,8.70
2022-12-08T15:52:46.131Z,9.93
2022-12-08T15:55:18.920Z,8.60
2022-12-08T16:00:55.546Z,10.33
2022-12-08T16:09:16.079Z,11.73
2022-12-08T16:12:07.283Z,9.40
2022-12-08T16:17:23.491Z,10.03
2022-12-08T16:19:50.654Z,10.97
2022-12-08T16:25:18.924Z,12.30
2022-12-08T16:30:34.868Z,12.77
2022-12-08T16:33:01.897Z,10.10
2022-12-08T16:35:29.179Z,8.53
2022-12-08T16:37:55.970Z,8.20
2022-12-08T16:40:23.230Z,7.50
2022-12-08T16:42:50.487Z,8.07
2022-12-08T16:45:20.830Z,10.83
2022-12-08T16:47:50.226Z,8.90
2022-12-08T16:50:23.176Z,10.50
2022-12-08T16:52:50.912Z,10.67
2022-12-08T16:55:19.681Z,11.13
2022-12-08T16:57:47.789Z,16.10
2022-12-08T17:00:20.716Z,14.05
2022-12-08T17:02:48.529Z,14.33
2022-12-08T17:05:18.753Z,18.13
2022-12-08T17:07:47.659Z,18.23
2022-12-08T17:12:44.101Z,17.20
2022-12-08T17:15:15.333Z,25.17
2022-12-08T17:17:42.379Z,22.17
2022-12-08T17:20:16.226Z,23.80
2022-12-08T17:22:43.416Z,21.93
2022-12-08T17:25:10.838Z,21.00
2022-12-08T17:27:37.975Z,15.40
2022-12-08T17:30:07.154Z,9.80
2022-12-08T17:35:01.398Z,8.87
2022-12-08T17:37:28.240Z,8.60
2022-12-08T17:39:55.329Z,8.77
2022-12-08T17:42:25.982Z,9.37
2022-12-08T17:44:53.849Z,9.03
2022-12-08T17:47:21.164Z,8.33
2022-12-08T17:49:48.282Z,7.70
2022-12-08T17:52:15.157Z,7.70
2022-12-08T17:54:42.297Z,8.37
2022-12-08T17:57:09.176Z,9.57
2022-12-08T17:59:36.279Z,9.77
2022-12-08T18:02:04.404Z,8.50
2022-12-08T18:04:32.069Z,8.98
2022-12-08T18:07:01.270Z,8.43
2022-12-08T18:09:31.001Z,7.73
2022-12-08T18:11:57.922Z,6.57
2022-12-08T18:14:25.089Z,10.13
2022-12-08T18:16:52.059Z,10.93
2022-12-08T18:19:19.228Z,11.47
2022-12-08T18:21:46.118Z,15.20
2022-12-08T18:24:18.981Z,14.83
2022-12-08T18:26:47.028Z,19.63
2022-12-08T18:29:14.301Z,17.60
2022-12-08T18:31:41.106Z,63.70
2022-12-08T18:34:08.196Z,85.57
2022-12-08T18:36:35.217Z,58.83
2022-12-08T18:39:07.202Z,52.13
2022-12-08T18:41:37.226Z,21.50
2022-12-08T18:44:04.580Z,20.07
2022-12-08T18:46:31.598Z,23.00
2022-12-08T18:48:59.574Z,25.73
2022-12-08T18:51:26.510Z,26.30
2022-12-08T18:53:53.710Z,33.93
2022-12-08T18:56:22.269Z,28.73
2022-12-08T18:58:49.633Z,42.03
2022-12-08T19:01:16.751Z,32.13
2022-12-08T19:04:04.729Z,33.33
2022-12-08T19:06:31.297Z,34.07
2022-12-08T19:08:58.483Z,29.90
2022-12-08T19:11:27.539Z,29.50
2022-12-08T19:13:55.675Z,30.77
2022-12-08T19:16:23.055Z,27.87
2022-12-08T19:18:50.221Z,31.03
2022-12-08T19:21:17.359Z,33.60
2022-12-08T19:23:44.492Z,33.33
2022-12-08T19:26:12.193Z,28.33
2022-12-08T19:28:41.093Z,26.23
2022-12-08T19:31:09.770Z,27.52
2022-12-08T19:33:37.838Z,31.85
2022-12-08T19:36:10.030Z,39.77
2022-12-08T19:38:56.438Z,39.17
2022-12-08T19:41:42.759Z,34.50
2022-12-08T19:44:40.538Z,83.93
2022-12-08T19:47:07.480Z,40.67
2022-12-08T19:49:34.877Z,39.47
2022-12-08T19:52:01.821Z,39.03
2022-12-08T19:54:28.973Z,48.87
2022-12-08T19:56:56.021Z,36.50
2022-12-08T19:59:26.252Z,30.97
2022-12-08T20:01:55.828Z,33.97
2022-12-08T20:04:24.721Z,33.57
2022-12-08T20:06:53.645Z,23.02
2022-12-08T20:09:21.554Z,30.30
2022-12-08T20:11:48.381Z,36.23
2022-12-08T20:14:15.513Z,72.60
2022-12-08T20:16:42.415Z,37.17
2022-12-08T20:19:09.593Z,32.00
2022-12-08T20:21:36.425Z,26.47
2022-12-08T20:24:04.721Z,25.80
2022-12-08T20:26:31.849Z,22.60
2022-12-08T20:28:59.064Z,22.20
2022-12-08T20:31:29.001Z,20.90
2022-12-08T20:33:56.203Z,25.33
2022-12-08T20:36:24.668Z,31.57
2022-12-08T20:38:53.282Z,41.85
2022-12-08T20:41:23.369Z,41.05
2022-12-08T20:43:51.389Z,38.10
2022-12-08T20:46:20.327Z,33.53
2022-12-08T20:48:48.139Z,24.77
2022-12-08T20:51:17.459Z,21.50
2022-12-08T20:53:45.681Z,23.67
2022-12-08T20:56:18.060Z,21.00
2022-12-08T20:58:46.050Z,21.07
2022-12-08T21:01:16.294Z,24.37
2022-12-08T21:03:45.339Z,26.90
2022-12-08T21:06:13.074Z,23.70
2022-12-08T21:08:41.218Z,25.53
2022-12-08T21:11:09.719Z,25.33
2022-12-08T21:13:38.210Z,20.90
2022-12-08T21:16:05.648Z,23.53
2022-12-08T21:18:38.869Z,17.47
2022-12-08T21:21:12.271Z,16.20
2022-12-08T21:23:40.525Z,15.67
2022-12-08T21:26:20.028Z,17.50
2022-12-08T21:28:47.562Z,20.20
2022-12-08T21:31:17.453Z,23.83
2022-12-08T21:33:45.172Z,21.73
2022-12-08T21:36:14.970Z,22.17
2022-12-08T21:38:43.316Z,20.73
2022-12-08T21:41:14.583Z,23.80
2022-12-08T21:43:43.315Z,23.80
2022-12-08T21:46:17.403Z,23.05
2022-12-08T21:48:44.663Z,29.00
2022-12-08T21:51:11.916Z,31.70
2022-12-08T21:53:39.303Z,38.63
2022-12-08T21:56:09.850Z,25.43
2022-12-08T21:58:37.021Z,35.73
2022-12-08T22:01:12.031Z,28.07
2022-12-08T22:03:40.589Z,25.43
2022-12-08T22:06:09.546Z,30.63
2022-12-08T22:11:04.544Z,34.13
2022-12-08T22:13:35.047Z,27.60
2022-12-08T22:16:05.022Z,26.93
2022-12-08T22:18:33.822Z,24.20
2022-12-08T22:21:00.855Z,21.77
2022-12-08T22:23:28.861Z,18.10
2022-12-08T22:26:00.187Z,20.27
2022-12-08T22:28:30.437Z,20.70
2022-12-08T22:30:57.436Z,24.27
2022-12-08T22:33:24.830Z,22.90
2022-12-08T22:36:03.431Z,22.27
2022-12-08T22:38:33.972Z,23.17
2022-12-08T22:41:00.962Z,30.37
2022-12-08T22:43:28.682Z,26.60
2022-12-08T22:45:55.605Z,35.10
2022-12-08T22:48:22.787Z,31.40
2022-12-08T22:50:49.681Z,27.53
2022-12-08T22:53:16.822Z,26.43
2022-12-08T22:55:44.750Z,22.70
2022-12-08T22:58:12.309Z,21.77
2022-12-08T23:00:39.472Z,28.70
2022-12-08T23:03:06.983Z,33.90
2022-12-08T23:05:35.375Z,19.93
2022-12-08T23:08:03.556Z,22.75
2022-12-08T23:10:31.426Z,22.00
2022-12-08T23:13:03.544Z,22.83
2022-12-08T23:15:31.595Z,22.47
2022-12-08T23:17:59.249Z,24.90
2022-12-08T23:20:26.222Z,24.43
2022-12-08T23:22:53.449Z,25.10
2022-12-08T23:25:20.455Z,25.70
2022-12-08T23:27:48.062Z,23.47
2022-12-08T23:30:15.327Z,23.00
2022-12-08T23:32:42.836Z,22.97
2022-12-08T23:35:10.136Z,30.30
2022-12-08T23:37:37.685Z,28.70
2022-12-08T23:40:05.670Z,27.40
2022-12-08T23:42:33.205Z,21.30
2022-12-08T23:45:00.369Z,20.00
2022-12-08T23:47:27.602Z,21.17
2022-12-08T23:49:54.408Z,20.93
2022-12-08T23:52:21.531Z,20.23
2022-12-08T23:54:50.743Z,24.97
2022-12-08T23:57:17.977Z,22.13
2022-12-08T23:59:45.046Z,20.30
